Time;durP1;ratioP1;P1;durP2;ratioP2;P2;SDS_P1;SDS_P2;PMS_P1;PMS_P2;Temp;Humidity;BMP_temperature;BMP_pressure;BME280_temperature;BME280_humidity;BME280_pressure;Samples;Min_cycle;Max_cycle;Signal;HPM_P1;HPM_P2
2021/12/15 00:01:45;;;;;;;;;42.00;34.00;;;;;11.77;47.50;99504.84;4842341;28;103900;-67
2021/12/15 00:04:14;;;;;;;;;39.25;31.75;;;;;11.77;47.49;99504.00;4827886;28;102658;-66
2021/12/15 00:06:41;;;;;;;;;21.00;16.25;;;;;11.75;47.46;99516.91;4807865;28;104248;-67
2021/12/15 00:09:10;;;;;;;;;45.25;36.25;;;;;11.73;46.75;99513.53;4803589;28;102838;-67
2021/12/15 00:11:38;;;;;;;;;43.25;33.25;;;;;11.72;47.14;99511.81;4830379;28;103203;-67
2021/12/15 00:14:11;;;;;;;;;46.25;36.75;;;;;11.73;47.63;99508.13;4840931;28;103611;-67
2021/12/15 00:16:39;;;;;;;;;37.75;30.00;;;;;11.72;47.24;99511.81;4830417;28;103069;-67
2021/12/15 00:19:06;;;;;;;;;36.25;33.75;;;;;11.71;47.06;99518.28;4819892;28;103607;-67
2021/12/15 00:21:33;;;;;;;;;47.00;34.75;;;;;11.71;47.11;99515.56;4823321;28;104284;-66
2021/12/15 00:24:00;;;;;;;;;41.25;34.00;;;;;11.70;47.38;99509.31;4837096;28;102660;-66
2021/12/15 00:26:27;;;;;;;;;44.50;32.25;;;;;11.70;46.88;99503.91;4830441;28;104171;-66
2021/12/15 00:28:55;;;;;;;;;40.75;35.00;;;;;11.69;47.84;99501.34;4839126;28;102987;-67
2021/12/15 00:31:22;;;;;;;;;43.00;35.50;;;;;11.68;47.57;99497.81;4827811;28;102613;-67
2021/12/15 00:33:49;;;;;;;;;51.00;38.00;;;;;11.67;47.17;99493.41;4831201;28;102822;-67
2021/12/15 00:36:16;;;;;;;;;42.75;34.25;;;;;11.68;47.54;99495.09;4826759;28;104282;-67
2021/12/15 00:38:43;;;;;;;;;41.75;35.50;;;;;11.68;47.66;99496.97;4842142;28;102891;-67
2021/12/15 00:41:10;;;;;;;;;40.25;32.75;;;;;11.68;47.30;99499.66;4844078;28;102614;-67
2021/12/15 00:43:37;;;;;;;;;43.25;34.75;;;;;11.66;47.32;99497.16;4830396;28;104687;-67
2021/12/15 00:46:04;;;;;;;;;44.75;37.00;;;;;11.67;47.62;99497.97;4843536;28;104018;-67
2021/12/15 00:48:31;;;;;;;;;37.25;32.75;;;;;11.65;47.45;99500.91;4831736;28;102764;-66
2021/12/15 00:50:58;;;;;;;;;40.75;30.75;;;;;11.64;47.06;99508.19;4827216;28;102964;-66
2021/12/15 00:53:25;;;;;;;;;39.25;35.50;;;;;11.66;47.48;99512.56;4840370;28;103108;-67
2021/12/15 00:55:52;;;;;;;;;44.75;35.75;;;;;11.63;47.67;99514.63;4825889;28;109045;-67
2021/12/15 00:58:19;;;;;;;;;46.25;35.00;;;;;11.63;47.59;99509.19;4845602;28;103317;-67
2021/12/15 01:00:53;;;;;;;;;37.25;34.25;;;;;11.61;47.42;99502.31;4829277;28;102495;-67
2021/12/15 01:03:20;;;;;;;;;42.00;36.50;;;;;11.61;47.61;99500.44;4808406;28;103029;-67
2021/12/15 01:05:49;;;;;;;;;41.25;35.00;;;;;11.61;47.75;99499.59;4818052;28;104052;-66
2021/12/15 01:08:20;;;;;;;;;41.25;35.75;;;;;11.59;47.71;99499.75;4830545;28;102532;-67
2021/12/15 01:11:02;;;;;;;;;36.00;32.50;;;;;11.59;47.77;99502.47;4836469;28;102749;-67
2021/12/15 01:22:08;;;;;;;;;42.75;35.00;;;;;11.57;47.61;99515.34;4837279;28;102438;-67
2021/12/15 01:24:35;;;;;;;;;40.25;35.00;;;;;11.57;47.49;99518.06;4843960;28;103718;-67
2021/12/15 01:27:02;;;;;;;;;43.00;36.25;;;;;11.56;47.11;99515.56;4827999;28;104086;-67
2021/12/15 01:29:29;;;;;;;;;39.50;31.50;;;;;11.55;47.77;99512.00;4837788;28;103232;-66
2021/12/15 01:31:56;;;;;;;;;38.75;35.00;;;;;11.57;47.05;99514.53;4836365;28;105274;-67
2021/12/15 01:34:23;;;;;;;;;41.75;34.50;;;;;11.55;47.21;99517.41;4827203;28;102591;-67
2021/12/15 01:36:50;;;;;;;;;42.00;31.50;;;;;11.56;47.57;99512.84;4819655;28;104165;-67
2021/12/15 01:39:17;;;;;;;;;43.75;34.50;;;;;11.55;47.67;99512.00;4823568;28;102825;-67
2021/12/15 01:41:45;;;;;;;;;43.25;35.75;;;;;11.54;47.23;99518.44;4830069;28;102541;-67
2021/12/15 01:46:57;;;;;;;;;43.00;34.50;;;;;11.53;47.44;99511.31;4831619;28;104099;-67
2021/12/15 01:49:28;;;;;;;;;37.00;33.50;;;;;11.53;47.40;99505.91;4841664;28;102718;-67
2021/12/15 01:51:57;;;;;;;;;35.50;29.50;;;;;11.53;47.50;99511.31;4830613;28;102563;-67
2021/12/15 01:54:24;;;;;;;;;41.00;33.75;;;;;11.53;47.20;99513.19;4836023;28;103013;-67
2021/12/15 01:56:51;;;;;;;;;39.25;35.00;;;;;11.53;47.66;99518.59;4828298;28;104103;-67
2021/12/15 01:59:19;;;;;;;;;40.75;32.25;;;;;11.55;47.07;99511.16;4819467;28;102619;-67
2021/12/15 02:01:46;;;;;;;;;42.50;33.50;;;;;11.54;47.59;99504.06;4825002;28;103829;-66
2021/12/15 02:04:16;;;;;;;;;42.50;34.00;;;;;11.55;47.05;99505.75;4805216;28;102448;-67
2021/12/15 02:06:44;;;;;;;;;38.00;30.75;;;;;11.55;47.17;99512.00;4821622;28;103956;-67
2021/12/15 02:09:13;;;;;;;;;39.75;32.25;;;;;11.55;47.46;99516.56;4796588;28;102826;-67
2021/12/15 02:11:40;;;;;;;;;41.75;34.25;;;;;11.56;47.19;99516.41;4807792;28;102624;-67
2021/12/15 02:14:07;;;;;;;;;41.25;33.50;;;;;11.54;47.42;99521.16;4843393;28;102570;-67
2021/12/15 02:16:34;;;;;;;;;35.00;33.75;;;;;11.54;47.23;99531.13;4830549;28;105352;-67
2021/12/15 02:19:02;;;;;;;;;43.50;31.75;;;;;11.54;47.40;99520.31;4818881;28;106793;-67
2021/12/15 02:21:29;;;;;;;;;42.50;35.00;;;;;11.54;47.06;99515.72;4826181;28;104028;-67
2021/12/15 02:23:57;;;;;;;;;37.75;33.75;;;;;11.54;46.69;99526.56;4833194;28;102846;-67
2021/12/15 02:26:33;;;;;;;;;41.00;35.00;;;;;11.54;47.12;99521.16;4833637;28;104361;-67
2021/12/15 02:29:01;;;;;;;;;35.75;28.50;;;;;11.54;47.08;99515.72;4822106;28;104511;-65
2021/12/15 02:31:41;;;;;;;;;44.50;33.75;;;;;11.55;47.15;99522.00;4831404;28;102920;-67
2021/12/15 02:37:16;;;;;;;;;40.50;34.00;;;;;11.55;47.24;99543.66;4826453;28;104872;-67
2021/12/15 02:39:46;;;;;;;;;37.75;30.25;;;;;11.55;47.28;99541.78;4826201;28;102487;-67
2021/12/15 02:42:13;;;;;;;;;37.75;29.00;;;;;11.55;47.02;99555.34;4837964;28;103604;-67
2021/12/15 02:44:43;;;;;;;;;41.00;34.00;;;;;11.55;47.36;99554.50;4838390;28;102728;-67
2021/12/15 02:47:14;;;;;;;;;47.00;35.00;;;;;11.55;47.18;99547.22;4837714;28;104111;-67
2021/12/15 02:49:41;;;;;;;;;35.25;27.25;;;;;11.55;46.94;99544.50;4831471;28;103124;-67
2021/12/15 02:52:08;;;;;;;;;37.50;30.75;;;;;11.53;47.18;99546.53;4836036;28;106251;-67
2021/12/15 02:54:36;;;;;;;;;42.25;34.00;;;;;11.50;46.81;99537.94;4825440;28;104643;-67
2021/12/15 02:57:06;;;;;;;;;39.25;31.50;;;;;11.53;47.58;99537.56;4833690;28;104332;-67
2021/12/15 02:59:44;;;;;;;;;35.75;34.25;;;;;11.52;47.22;99533.19;4818192;28;102711;-66
2021/12/15 03:03:12;;;;;;;;;35.75;30.00;;;;;11.52;46.89;99536.75;4832970;28;107367;-67
2021/12/15 03:05:10;;;;;;;;;31.50;27.75;;;;;11.52;47.28;99534.03;4811650;28;102705;-67
2021/12/15 03:15:42;;;;;;;;;33.00;30.50;;;;;11.54;47.48;99553.66;4831143;28;105218;-67
2021/12/15 03:18:14;;;;;;;;;38.00;32.00;;;;;11.59;47.52;99555.81;4831857;28;103486;-67
2021/12/15 03:20:45;;;;;;;;;34.00;29.25;;;;;11.64;47.01;99550.69;4826399;28;105543;-67
2021/12/15 03:23:13;;;;;;;;;35.25;31.25;;;;;11.69;47.27;99556.38;4833168;28;102754;-67
2021/12/15 03:25:40;;;;;;;;;32.75;28.25;;;;;11.74;47.00;99559.41;4829166;28;102965;-67
2021/12/15 03:36:22;;;;;;;;;33.50;31.25;;;;;11.88;47.28;99560.47;4844572;28;102561;-67
2021/12/15 03:38:49;;;;;;;;;39.00;28.25;;;;;11.90;47.55;99561.09;4827122;28;104207;-66
2021/12/15 03:41:16;;;;;;;;;34.25;27.50;;;;;11.94;46.72;99565.97;4830101;28;102510;-67
2021/12/15 03:43:43;;;;;;;;;30.50;24.75;;;;;11.97;46.97;99562.06;4830634;28;104424;-67
2021/12/15 03:46:13;;;;;;;;;34.25;28.00;;;;;11.98;46.79;99569.97;4831352;28;102582;-67
2021/12/15 03:48:42;;;;;;;;;30.75;25.00;;;;;12.00;46.49;99565.22;4834242;28;104089;-67
2021/12/15 03:51:12;;;;;;;;;34.75;29.25;;;;;12.03;47.59;99564.00;4843609;28;102509;-66
2021/12/15 03:53:41;;;;;;;;;27.75;19.50;;;;;12.05;46.85;99562.81;4829972;28;104421;-67
2021/12/15 03:56:10;;;;;;;;;37.75;29.50;;;;;12.07;47.01;99576.16;4831317;28;102421;-66
2021/12/15 03:58:37;;;;;;;;;33.25;29.50;;;;;12.10;46.57;99577.66;4833770;28;103755;-67
2021/12/15 04:01:07;;;;;;;;;32.50;27.00;;;;;12.12;46.41;99570.16;4843262;28;104391;-66
2021/12/15 04:03:37;;;;;;;;;34.00;29.75;;;;;12.11;46.52;99574.78;4828347;28;102666;-66
2021/12/15 04:06:08;;;;;;;;;42.25;26.50;;;;;12.12;46.89;99571.00;4843451;28;102526;-66
2021/12/15 04:08:36;;;;;;;;;34.50;30.00;;;;;12.12;46.86;99568.31;4842917;28;104168;-67
2021/12/15 04:11:04;;;;;;;;;34.75;30.00;;;;;12.12;46.41;99565.59;4851177;28;102269;-67
2021/12/15 04:13:31;;;;;;;;;30.50;26.75;;;;;12.13;47.18;99570.00;4833609;28;104056;-67
2021/12/15 04:16:05;;;;;;;;;34.75;29.25;;;;;12.15;46.84;99575.22;4833465;28;104380;-67
2021/12/15 04:18:33;;;;;;;;;29.50;24.25;;;;;12.15;46.72;99581.50;4835575;28;109065;-66
2021/12/15 04:21:00;;;;;;;;;32.50;28.75;;;;;12.16;46.39;99580.44;4834459;28;102628;-67
2021/12/15 04:23:27;;;;;;;;;31.75;28.50;;;;;12.16;47.07;99574.22;4837656;28;102245;-67
2021/12/15 04:25:55;;;;;;;;;33.75;25.25;;;;;12.16;46.31;99583.16;4844490;28;104807;-67
2021/12/15 04:28:24;;;;;;;;;29.50;27.25;;;;;12.18;47.00;99582.97;4832467;28;104015;-66
2021/12/15 04:30:53;;;;;;;;;29.25;25.25;;;;;12.18;46.87;99589.25;4823613;28;102524;-67
2021/12/15 04:33:27;;;;;;;;;37.75;31.75;;;;;12.19;46.76;99585.53;4836090;28;102161;-67
2021/12/15 04:35:55;;;;;;;;;25.00;23.75;;;;;12.21;46.44;99593.44;4848621;28;102668;-67
2021/12/15 04:38:23;;;;;;;;;38.25;29.50;;;;;12.20;46.78;99595.34;4833523;28;105368;-67
2021/12/15 04:40:50;;;;;;;;;27.25;24.25;;;;;12.20;46.60;99595.34;4833335;28;104710;-67
2021/12/15 04:43:17;;;;;;;;;37.25;28.25;;;;;12.20;46.68;99594.50;4828712;28;102552;-67
2021/12/15 04:45:44;;;;;;;;;34.25;30.50;;;;;12.19;46.22;99604.50;4839061;28;102714;-67
2021/12/15 04:48:11;;;;;;;;;31.25;27.75;;;;;12.19;46.79;99585.53;4846787;28;103820;-67
2021/12/15 04:50:38;;;;;;;;;30.50;26.50;;;;;12.18;46.31;99594.69;4831718;28;103582;-67
2021/12/15 04:53:06;;;;;;;;;32.25;28.75;;;;;12.18;46.20;99599.25;4837250;28;102547;-65
2021/12/15 04:55:34;;;;;;;;;35.50;32.00;;;;;12.17;46.49;99592.97;4850931;28;102751;-67
2021/12/15 04:58:01;;;;;;;;;34.25;26.50;;;;;12.16;46.48;99604.84;4822900;28;108883;-67
2021/12/15 05:00:30;;;;;;;;;27.50;23.00;;;;;12.16;46.36;99590.47;4832866;28;102497;-67
2021/12/15 05:02:58;;;;;;;;;32.00;26.75;;;;;12.16;45.90;99596.72;4827214;28;104056;-67
2021/12/15 05:05:26;;;;;;;;;29.75;27.25;;;;;12.15;46.23;99600.47;4838637;28;103922;-67
2021/12/15 05:07:55;;;;;;;;;33.25;31.25;;;;;12.13;46.71;99607.94;4834447;28;104350;-67
2021/12/15 05:10:22;;;;;;;;;34.00;28.50;;;;;12.13;46.59;99599.81;4828293;28;104802;-67
2021/12/15 05:12:49;;;;;;;;;31.00;23.00;;;;;12.13;46.75;99610.66;4828950;28;111263;-67
2021/12/15 05:15:17;;;;;;;;;32.00;29.50;;;;;12.12;46.93;99614.38;4826023;28;102617;-67
2021/12/15 05:17:44;;;;;;;;;35.00;30.00;;;;;12.12;46.43;99608.13;4828577;28;104183;-67
2021/12/15 05:20:11;;;;;;;;;31.00;28.50;;;;;12.08;46.69;99608.50;4840014;28;102469;-67
2021/12/15 05:22:39;;;;;;;;;34.75;29.00;;;;;12.07;46.14;99616.81;4830027;28;103094;-67
2021/12/15 05:25:06;;;;;;;;;21.00;21.00;;;;;12.06;46.59;99616.00;4833053;28;102374;-66
2021/12/15 05:27:34;;;;;;;;;30.75;29.00;;;;;12.05;45.87;99621.59;4834984;28;103768;-67
2021/12/15 05:30:01;;;;;;;;;29.00;27.25;;;;;12.06;46.40;99617.88;4835508;28;102489;-67
2021/12/15 05:32:27;;;;;;;;;31.75;24.00;;;;;12.04;45.86;99619.91;4845490;28;102488;-67
2021/12/15 05:34:57;;;;;;;;;36.75;30.00;;;;;12.02;47.05;99616.56;4834606;28;103639;-66
2021/12/15 05:37:24;;;;;;;;;34.00;30.00;;;;;12.05;46.54;99624.31;4830031;28;104044;-67
2021/12/15 05:39:52;;;;;;;;;28.25;25.25;;;;;12.06;46.82;99617.88;4831300;28;102410;-67
2021/12/15 05:42:19;;;;;;;;;33.00;26.00;;;;;12.04;46.53;99619.91;4828746;28;102272;-67
2021/12/15 05:44:46;;;;;;;;;28.25;24.75;;;;;12.03;46.98;99618.22;4840272;28;102749;-67
2021/12/15 05:47:14;;;;;;;;;29.00;28.00;;;;;12.02;46.29;99621.97;4837720;28;104043;-66
2021/12/15 05:49:41;;;;;;;;;29.75;24.50;;;;;12.01;47.05;99625.72;4832839;28;103097;-67
2021/12/15 05:52:11;;;;;;;;;34.75;27.75;;;;;12.01;46.59;99631.97;4837649;28;102938;-67
2021/12/15 05:54:38;;;;;;;;;35.00;27.00;;;;;12.02;46.22;99638.25;4834179;28;103453;-66
2021/12/15 05:57:05;;;;;;;;;31.50;28.75;;;;;11.99;46.36;99633.16;4838729;28;104040;-66
2021/12/15 05:59:33;;;;;;;;;32.25;28.50;;;;;11.99;46.53;99627.75;4842249;28;102389;-67
2021/12/15 06:02:00;;;;;;;;;33.25;31.50;;;;;11.98;46.32;99632.31;4825884;28;103596;-67
2021/12/15 06:04:27;;;;;;;;;32.00;26.00;;;;;11.97;46.13;99632.53;4843964;28;102466;-67
2021/12/15 06:06:54;;;;;;;;;29.25;25.00;;;;;11.97;46.98;99637.94;4838446;28;105045;-68
2021/12/15 06:09:21;;;;;;;;;30.25;25.25;;;;;11.97;46.51;99637.94;4844372;28;102489;-67
2021/12/15 06:11:51;;;;;;;;;28.25;24.75;;;;;11.96;45.96;99644.38;4837305;28;102274;-67
2021/12/15 06:14:24;;;;;;;;;37.25;27.25;;;;;11.95;46.86;99653.53;4847958;28;102657;-67
2021/12/15 06:16:59;;;;;;;;;30.50;28.00;;;;;11.95;46.50;99656.25;4838635;28;104068;-67
2021/12/15 06:19:26;;;;;;;;;30.00;26.75;;;;;11.91;46.79;99647.66;4834552;28;102294;-67
2021/12/15 06:21:53;;;;;;;;;30.50;27.75;;;;;11.91;46.71;99652.22;4835358;28;102286;-67
2021/12/15 06:24:20;;;;;;;;;33.50;28.50;;;;;11.88;46.36;99649.91;4843147;28;102733;-67
2021/12/15 06:26:47;;;;;;;;;31.50;24.50;;;;;11.87;46.30;99656.34;4841713;28;103990;-67
2021/12/15 06:29:14;;;;;;;;;29.75;27.25;;;;;11.86;46.57;99649.22;4853151;28;102375;-67
2021/12/15 06:31:41;;;;;;;;;30.50;25.00;;;;;11.84;46.46;99646.69;4828735;28;104366;-66
2021/12/15 06:34:08;;;;;;;;;30.50;24.75;;;;;11.82;46.07;99646.03;4826934;28;103662;-66
2021/12/15 06:36:35;;;;;;;;;33.25;28.50;;;;;11.83;46.67;99647.72;4847562;28;104306;-67
2021/12/15 06:39:04;;;;;;;;;28.25;26.00;;;;;11.84;46.63;99656.72;4837992;28;102646;-67
2021/12/15 06:41:31;;;;;;;;;28.75;24.00;;;;;11.83;46.67;99661.28;4835804;28;106269;-67
2021/12/15 06:43:59;;;;;;;;;33.25;24.25;;;;;11.83;47.02;99660.44;4838158;28;102766;-67
2021/12/15 07:00:30;;;;;;;;;28.00;22.75;;;;;11.84;46.15;99672.97;4843566;28;102214;-67
2021/12/15 07:02:57;;;;;;;;;36.75;29.75;;;;;11.83;46.52;99671.28;4839933;28;102849;-67
2021/12/15 07:05:25;;;;;;;;;36.25;28.75;;;;;11.82;46.47;99666.88;4844872;28;102548;-67
2021/12/15 07:07:52;;;;;;;;;29.00;24.00;;;;;11.82;46.68;99675.00;4837879;28;104474;-67
2021/12/15 07:10:22;;;;;;;;;27.75;23.75;;;;;11.80;46.89;99671.63;4839323;28;102266;-67
2021/12/15 07:12:49;;;;;;;;;31.75;27.75;;;;;11.80;46.52;99679.75;4840637;28;102520;-67
2021/12/15 07:15:16;;;;;;;;;29.75;25.00;;;;;11.80;47.17;99682.47;4840397;28;103406;-67
2021/12/15 07:17:46;;;;;;;;;31.00;25.50;;;;;11.78;46.88;99689.94;4837978;28;103918;-67
2021/12/15 07:23:00;;;;;;;;;28.75;22.50;;;;;11.77;46.53;99701.81;4833564;28;102138;-67
2021/12/15 07:25:27;;;;;;;;;35.00;25.50;;;;;11.74;46.76;99696.75;4839484;28;102603;-67
2021/12/15 07:27:54;;;;;;;;;29.75;23.25;;;;;11.73;46.89;99704.03;4835973;28;104175;-67
2021/12/15 07:30:21;;;;;;;;;37.25;30.00;;;;;11.72;47.12;99702.34;4848431;28;102595;-67
2021/12/15 07:32:48;;;;;;;;;33.50;27.75;;;;;11.72;46.57;99694.22;4846602;28;102572;-67
2021/12/15 07:35:16;;;;;;;;;31.00;26.50;;;;;11.72;46.89;99706.88;4841795;28;102517;-67
2021/12/15 07:37:46;;;;;;;;;31.25;23.50;;;;;11.72;46.62;99706.88;4825747;28;103956;-67
2021/12/15 07:40:20;;;;;;;;;32.00;24.25;;;;;11.71;46.51;99721.47;4841790;28;102956;-67
2021/12/15 07:43:09;;;;;;;;;29.75;25.75;;;;;11.70;46.80;99715.22;4837885;28;108832;-67
2021/12/15 07:45:50;;;;;;;;;32.25;26.00;;;;;11.70;46.46;99730.63;4830663;28;102410;-67
2021/12/15 07:48:18;;;;;;;;;31.00;26.00;;;;;11.68;46.57;99719.97;4836430;28;109089;-67
2021/12/15 07:50:46;;;;;;;;;26.00;23.75;;;;;11.68;46.59;99730.78;4828024;28;102335;-68
2021/12/15 07:53:14;;;;;;;;;14.00;9.50;;;;;11.69;47.24;99735.19;4840243;28;102536;-67
2021/12/15 07:55:42;;;;;;;;;30.50;25.50;;;;;11.69;46.72;99737.06;4848884;28;102524;-67
2021/12/15 07:58:09;;;;;;;;;37.00;28.50;;;;;11.69;46.82;99734.34;4837624;28;104266;-65
2021/12/15 08:00:36;;;;;;;;;34.50;26.00;;;;;11.69;46.27;99734.34;4846174;28;102612;-67
2021/12/15 08:03:04;;;;;;;;;31.25;27.00;;;;;11.69;46.48;99734.34;4847296;28;102242;-67
2021/12/15 08:05:31;;;;;;;;;29.50;25.25;;;;;11.67;46.81;99736.38;4850414;28;102573;-67
2021/12/15 08:07:58;;;;;;;;;30.00;27.75;;;;;11.67;47.08;99739.09;4850628;28;104030;-67
2021/12/15 08:10:25;;;;;;;;;28.50;24.25;;;;;11.66;46.50;99743.69;4854871;28;102595;-67
2021/12/15 08:12:52;;;;;;;;;34.75;27.25;;;;;11.66;47.06;99740.13;4839679;28;102058;-67
2021/12/15 08:15:19;;;;;;;;;29.25;25.75;;;;;11.67;46.91;99747.22;4839219;28;102874;-67
2021/12/15 08:17:50;;;;;;;;;30.50;27.00;;;;;11.66;47.17;99749.13;4829314;28;104111;-67
2021/12/15 08:20:24;;;;;;;;;34.25;28.75;;;;;11.67;46.47;99752.63;4840576;28;102535;-67
2021/12/15 08:22:51;;;;;;;;;34.00;27.25;;;;;11.66;47.09;99761.81;4857239;28;102401;-67
2021/12/15 08:25:19;;;;;;;;;26.25;21.25;;;;;11.64;46.83;99759.28;4837501;28;102716;-67
2021/12/15 08:27:46;;;;;;;;;28.25;26.25;;;;;11.63;46.54;99752.16;4845416;28;103942;-67
2021/12/15 08:30:19;;;;;;;;;29.25;25.25;;;;;11.63;47.33;99763.00;4836841;28;102144;-67
2021/12/15 08:32:51;;;;;;;;;28.25;22.00;;;;;11.62;46.77;99759.44;4839712;28;102251;-67
2021/12/15 08:35:20;;;;;;;;;30.25;24.25;;;;;11.61;46.82;99759.63;4850378;28;102798;-67
2021/12/15 08:37:47;;;;;;;;;25.50;22.25;;;;;11.61;46.33;99760.50;4835055;28;104176;-67
2021/12/15 08:40:14;;;;;;;;;25.75;23.00;;;;;11.62;46.34;99762.16;4828734;28;102411;-67
2021/12/15 08:42:41;;;;;;;;;34.00;27.25;;;;;11.63;46.74;99768.41;4841794;28;102619;-67
2021/12/15 08:45:09;;;;;;;;;30.50;24.25;;;;;11.66;46.57;99773.50;4832326;28;102952;-67
2021/12/15 08:47:36;;;;;;;;;27.75;24.75;;;;;11.67;46.76;99780.56;4831625;28;108273;-67
2021/12/15 08:50:06;;;;;;;;;30.50;22.25;;;;;11.69;46.35;99783.97;4822076;28;102750;-67
2021/12/15 08:52:33;;;;;;;;;24.50;23.75;;;;;11.69;47.11;99789.38;4842786;28;103624;-67
2021/12/15 08:55:00;;;;;;;;;34.25;26.25;;;;;11.69;46.52;99783.13;4856790;28;103849;-67
2021/12/15 08:57:27;;;;;;;;;33.00;28.00;;;;;11.69;46.84;99794.81;4852188;28;103531;-67
2021/12/15 08:59:54;;;;;;;;;24.50;21.25;;;;;11.68;46.17;99793.09;4840547;28;102550;-67
2021/12/15 09:02:21;;;;;;;;;30.50;23.75;;;;;11.70;46.47;99782.09;4836953;28;103285;-67
2021/12/15 09:04:49;;;;;;;;;27.25;23.00;;;;;11.69;46.62;99773.13;4827364;28;103257;-67
2021/12/15 09:07:16;;;;;;;;;29.25;25.25;;;;;11.69;46.41;99769.56;4834575;28;103781;-67
2021/12/15 09:09:43;;;;;;;;;28.75;25.50;;;;;11.68;46.71;99770.59;4862771;28;103007;-67
2021/12/15 09:12:10;;;;;;;;;25.75;21.50;;;;;11.70;46.79;99773.97;4832966;28;103668;-66
2021/12/15 09:14:37;;;;;;;;;29.25;26.00;;;;;11.70;46.83;99768.56;4842716;28;102716;-67
2021/12/15 09:17:04;;;;;;;;;30.25;26.00;;;;;11.70;46.63;99765.84;4835322;28;104069;-67
2021/12/15 09:19:31;;;;;;;;;30.00;23.00;;;;;11.70;46.55;99765.84;4820500;28;102748;-67
2021/12/15 09:21:58;;;;;;;;;23.00;21.75;;;;;11.69;46.89;99766.88;4847513;28;102304;-67
2021/12/15 09:24:25;;;;;;;;;21.25;17.75;;;;;11.69;46.66;99756.03;4851997;28;102657;-67
2021/12/15 09:26:53;;;;;;;;;28.25;24.00;;;;;11.69;46.62;99762.28;4839987;28;104036;-67
2021/12/15 09:29:21;;;;;;;;;28.50;24.25;;;;;11.69;46.14;99761.44;4851017;28;103772;-67
2021/12/15 09:31:48;;;;;;;;;34.50;27.50;;;;;11.67;46.37;99755.34;4851886;28;102508;-67
2021/12/15 09:34:18;;;;;;;;;27.00;23.75;;;;;11.67;46.39;99758.06;4839463;28;102414;-67
2021/12/15 09:36:47;;;;;;;;;19.00;16.25;;;;;11.68;46.56;99757.03;4854262;28;104486;-66
2021/12/15 09:39:15;;;;;;;;;28.00;23.00;;;;;11.66;46.38;99757.25;4844451;28;102634;-67
2021/12/15 09:41:42;;;;;;;;;28.25;23.25;;;;;11.64;46.42;99757.41;4843502;28;102178;-67
2021/12/15 09:44:12;;;;;;;;;27.75;21.75;;;;;11.64;46.78;99760.13;4836558;28;102681;-66
2021/12/15 09:47:07;;;;;;;;;28.50;24.25;;;;;11.66;46.43;99759.94;4837437;28;110412;-67
2021/12/15 10:03:06;;;;;;;;;24.50;21.25;;;;;11.68;46.14;99759.75;4851840;28;102568;-67
2021/12/15 10:05:43;;;;;;;;;32.75;27.75;;;;;11.68;46.89;99749.75;4829339;28;102600;-67
2021/12/15 10:19:34;;;;;;;;;25.75;22.25;;;;;11.67;46.82;99745.34;4841209;28;109010;-67
2021/12/15 10:25:00;;;;;;;;;25.50;20.75;;;;;11.66;46.44;99742.84;4850540;28;103463;-67
2021/12/15 10:28:17;;;;;;;;;22.75;20.00;;;;;11.66;47.09;99740.13;4839220;28;103388;-67
2021/12/15 10:30:48;;;;;;;;;30.50;25.25;;;;;11.66;46.14;99738.28;4847680;28;109638;-67
2021/12/15 10:33:16;;;;;;;;;26.25;23.25;;;;;11.64;47.00;99738.44;4835632;28;103883;-67
2021/12/15 10:35:50;;;;;;;;;25.50;22.00;;;;;11.64;46.69;99743.03;4831758;28;102564;-67
2021/12/15 10:38:25;;;;;;;;;26.25;23.50;;;;;11.63;46.87;99742.16;4830593;28;102921;-67
2021/12/15 10:40:59;;;;;;;;;25.00;15.75;;;;;11.60;46.95;99733.56;4826097;28;104494;-67
2021/12/15 10:43:32;;;;;;;;;31.50;28.00;;;;;11.59;46.93;99735.44;4832701;28;102680;-66
2021/12/15 10:46:04;;;;;;;;;29.00;25.25;;;;;11.58;46.55;99731.03;4842680;28;102780;-67
2021/12/15 10:48:37;;;;;;;;;27.25;22.75;;;;;11.60;46.31;99730.84;4843570;28;105750;-67
2021/12/15 10:51:30;;;;;;;;;30.00;23.00;;;;;11.60;46.54;99720.88;4841011;28;104086;-67
2021/12/15 10:54:00;;;;;;;;;27.00;21.00;;;;;11.60;46.67;99720.88;4845361;28;102867;-67
2021/12/15 10:56:31;;;;;;;;;27.25;22.75;;;;;11.61;46.86;99716.31;4840984;28;102514;-67
2021/12/15 10:59:02;;;;;;;;;25.75;21.75;;;;;11.62;46.31;99716.09;4854766;28;102569;-68
2021/12/15 11:01:45;;;;;;;;;24.25;22.25;;;;;11.61;46.74;99711.72;4841748;28;104050;-68
2021/12/15 11:04:20;;;;;;;;;27.00;24.50;;;;;11.60;46.30;99709.19;4838237;28;102824;-67
2021/12/15 11:07:03;;;;;;;;;29.50;24.00;;;;;11.60;46.20;99710.03;4845747;28;102578;-67
2021/12/15 11:09:38;;;;;;;;;32.50;24.00;;;;;11.63;46.68;99716.94;4843788;28;102761;-67
2021/12/15 11:12:09;;;;;;;;;22.50;20.75;;;;;11.63;46.66;99709.66;4847499;28;104248;-67
2021/12/15 11:14:39;;;;;;;;;28.50;21.50;;;;;11.64;46.40;99711.34;4820185;28;102601;-67
2021/12/15 11:17:11;;;;;;;;;23.75;21.00;;;;;11.64;46.54;99705.94;4820738;28;102432;-67
2021/12/15 11:19:56;;;;;;;;;29.00;25.25;;;;;11.64;46.40;99696.97;4841713;28;103989;-67
2021/12/15 11:22:34;;;;;;;;;22.50;22.00;;;;;11.64;46.72;99702.38;4838710;28;109066;-67
2021/12/15 11:25:02;;;;;;;;;27.25;22.25;;;;;11.63;46.69;99690.69;4848383;28;102495;-67
2021/12/15 11:27:29;;;;;;;;;25.50;21.50;;;;;11.63;46.78;99688.00;4860460;28;102384;-67
2021/12/15 11:29:56;;;;;;;;;32.75;24.00;;;;;11.64;46.61;99676.13;4835537;28;102481;-67
2021/12/15 11:32:35;;;;;;;;;25.00;21.00;;;;;11.64;46.25;99680.72;4843782;28;104179;-67
2021/12/15 11:35:07;;;;;;;;;30.75;26.50;;;;;11.63;46.62;99669.03;4844465;28;102799;-67
2021/12/15 11:37:53;;;;;;;;;23.50;21.00;;;;;11.63;46.59;99677.16;4843146;28;102587;-67
2021/12/15 11:40:32;;;;;;;;;26.25;23.50;;;;;11.63;46.18;99674.44;4836536;28;102557;-67
2021/12/15 11:42:59;;;;;;;;;28.50;20.25;;;;;11.63;46.17;99685.28;4831614;28;104084;-67
2021/12/15 11:45:26;;;;;;;;;28.00;22.25;;;;;11.60;46.32;99680.25;4825408;28;102760;-67
2021/12/15 11:48:14;;;;;;;;;28.00;21.00;;;;;11.61;46.63;99687.34;4859595;28;102508;-67
2021/12/15 11:50:41;;;;;;;;;25.00;21.50;;;;;11.62;46.79;99680.88;4854786;28;105404;-67
2021/12/15 11:53:34;;;;;;;;;23.25;21.00;;;;;11.64;46.46;99688.84;4856725;28;109005;-67
2021/12/15 11:56:30;;;;;;;;;26.00;24.00;;;;;11.63;46.24;99698.81;4835520;28;102248;-67
2021/12/15 11:59:18;;;;;;;;;24.50;21.00;;;;;11.62;46.64;99691.72;4836800;28;103404;-67
2021/12/15 12:01:51;;;;;;;;;26.50;22.00;;;;;11.62;46.50;99691.72;4835360;28;102855;-66
2021/12/15 12:04:39;;;;;;;;;31.25;22.75;;;;;11.63;46.81;99685.28;4835589;28;104398;-67
2021/12/15 12:07:13;;;;;;;;;23.50;20.75;;;;;11.61;46.80;99690.06;4856592;28;102715;-67
2021/12/15 12:09:43;;;;;;;;;27.75;22.50;;;;;11.63;46.30;99687.16;4851040;28;103258;-67
2021/12/15 12:12:10;;;;;;;;;24.00;21.75;;;;;11.62;46.38;99699.84;4839620;28;103684;-67
2021/12/15 12:14:40;;;;;;;;;29.75;22.00;;;;;11.63;46.59;99706.09;4850585;28;109096;-67
2021/12/15 12:17:13;;;;;;;;;22.50;20.00;;;;;11.63;46.36;99690.69;4835417;28;102619;-68
2021/12/15 12:19:44;;;;;;;;;25.75;21.75;;;;;11.63;46.41;99696.13;4845833;28;103749;-67
2021/12/15 12:22:11;;;;;;;;;24.75;21.25;;;;;11.63;46.81;99697.97;4852027;28;102375;-68
2021/12/15 12:24:43;;;;;;;;;30.00;22.75;;;;;11.62;46.66;99686.31;4839215;28;108992;-67
2021/12/15 12:27:11;;;;;;;;;29.00;24.25;;;;;11.61;46.50;99690.06;4838996;28;102300;-67
2021/12/15 12:29:38;;;;;;;;;26.50;23.00;;;;;11.62;46.42;99689.00;4831936;28;102683;-68
2021/12/15 12:32:05;;;;;;;;;28.50;22.50;;;;;11.62;46.66;99683.59;4825494;28;102390;-67
2021/12/15 12:34:32;;;;;;;;;18.75;15.50;;;;;11.60;46.31;99674.81;4843850;28;104322;-68
2021/12/15 12:37:00;;;;;;;;;20.75;18.00;;;;;11.60;46.52;99669.41;4841406;28;102303;-67